createdAt,value
2018-08-04T00:00:08.521Z,66.08
2018-08-04T00:00:18.530Z,66.47
2018-08-04T00:00:28.271Z,66.27
2018-08-04T00:00:38.550Z,66.37
2018-08-04T00:00:48.623Z,65.98
2018-08-04T00:00:58.597Z,65.98
2018-08-04T00:01:08.301Z,66.47
2018-08-04T00:01:18.351Z,66.27
2018-08-04T00:01:28.620Z,66.17
2018-08-04T00:01:38.620Z,66.08
2018-08-04T00:01:48.640Z,66.08
2018-08-04T00:01:58.826Z,65.98
2018-08-04T00:02:08.447Z,65.98
2018-08-04T00:02:18.701Z,65.69
2018-08-04T00:02:28.720Z,66.17
2018-08-04T00:02:38.738Z,66.08
2018-08-04T00:02:48.723Z,66.27
2018-08-04T00:02:58.760Z,66.47
2018-08-04T00:03:08.753Z,66.27
2018-08-04T00:03:18.771Z,66.27
2018-08-04T00:03:28.811Z,66.17
2018-08-04T00:03:38.833Z,66.17
2018-08-04T00:03:48.831Z,66.37
2018-08-04T00:03:58.836Z,65.69
2018-08-04T00:04:08.578Z,66.17
2018-08-04T00:04:18.581Z,66.08
2018-08-04T00:04:28.864Z,66.17
2018-08-04T00:04:38.922Z,66.17
2018-08-04T00:04:48.922Z,66.08
2018-08-04T00:04:58.913Z,66.08
2018-08-04T00:05:08.944Z,66.17
2018-08-04T00:05:18.984Z,66.37
2018-08-04T00:05:28.972Z,66.08
2018-08-04T00:05:38.991Z,65.98
2018-08-04T00:05:49.010Z,66.08
2018-08-04T00:05:59.020Z,66.17
2018-08-04T00:06:09.002Z,66.17
2018-08-04T00:06:18.761Z,65.98
2018-08-04T00:06:29.032Z,65.89
2018-08-04T00:06:39.063Z,66.17
2018-08-04T00:06:49.071Z,65.98
2018-08-04T00:06:59.079Z,66.27
2018-08-04T00:07:09.100Z,66.17
2018-08-04T00:07:19.112Z,66.66
2018-08-04T00:07:29.121Z,66.47
2018-08-04T00:07:39.152Z,66.66
2018-08-04T00:07:49.161Z,66.56
2018-08-04T00:07:59.190Z,66.27
2018-08-04T00:08:09.182Z,66.17
2018-08-04T00:08:18.932Z,66.47
2018-08-04T00:08:29.211Z,66.27
2018-08-04T00:08:39.202Z,66.66
2018-08-04T00:08:49.231Z,66.27
2018-08-04T00:08:59.261Z,66.66
2018-08-04T00:09:09.242Z,66.27
2018-08-04T00:09:19.249Z,65.98
2018-08-04T00:09:29.281Z,66.17
2018-08-04T00:09:39.281Z,66.17
2018-08-04T00:09:49.281Z,66.08
2018-08-04T00:09:59.341Z,66.17
2018-08-04T00:10:09.315Z,66.27
2018-08-04T00:10:19.359Z,66.27
2018-08-04T00:10:29.362Z,66.17
2018-08-04T00:10:39.093Z,66.17
2018-08-04T00:10:49.381Z,66.17
2018-08-04T00:10:59.409Z,66.08
2018-08-04T00:11:09.444Z,66.37
2018-08-04T00:11:19.424Z,66.37
2018-08-04T00:11:29.432Z,66.37
2018-08-04T00:11:39.478Z,66.27
2018-08-04T00:11:49.256Z,66.17
2018-08-04T00:11:59.736Z,66.08
2018-08-04T00:12:09.576Z,66.08
2018-08-04T00:12:19.255Z,66.17
2018-08-04T00:12:29.525Z,66.08
2018-08-04T00:12:39.547Z,66.17
2018-08-04T00:12:49.285Z,66.37
2018-08-04T00:12:59.571Z,66.47
2018-08-04T00:13:09.582Z,66.27
2018-08-04T00:13:19.591Z,66.47
2018-08-04T00:13:29.630Z,66.27
2018-08-04T00:13:39.623Z,66.56
2018-08-04T00:13:49.644Z,66.27
2018-08-04T00:13:59.654Z,65.98
2018-08-04T00:14:09.661Z,66.47
2018-08-04T00:14:19.673Z,66.47
2018-08-04T00:14:29.713Z,66.17
2018-08-04T00:14:39.741Z,66.66
2018-08-04T00:14:49.732Z,66.56
2018-08-04T00:14:59.721Z,66.37
2018-08-04T00:15:09.750Z,66.47
2018-08-04T00:15:19.760Z,66.47
2018-08-04T00:15:29.776Z,66.37
2018-08-04T00:15:39.810Z,66.56
2018-08-04T00:15:49.810Z,66.27
2018-08-04T00:15:59.552Z,66.08
2018-08-04T00:16:09.844Z,65.98
2018-08-04T00:16:19.571Z,65.98
2018-08-04T00:16:29.870Z,66.08
2018-08-04T00:16:39.871Z,66.08
2018-08-04T00:16:49.892Z,66.47
2018-08-04T00:16:59.617Z,66.17
2018-08-04T00:17:09.892Z,66.08
2018-08-04T00:17:19.663Z,66.56
2018-08-04T00:17:29.680Z,66.37
2018-08-04T00:17:39.682Z,66.08
2018-08-04T00:17:49.952Z,66.47
2018-08-04T00:18:00.017Z,66.08
2018-08-04T00:18:10.037Z,66.17
2018-08-04T00:18:20.002Z,66.17
2018-08-04T00:18:30.032Z,65.89
2018-08-04T00:18:40.079Z,65.98
2018-08-04T00:18:50.062Z,65.89
2018-08-04T00:19:00.065Z,66.17
2018-08-04T00:19:10.102Z,66.27
2018-08-04T00:19:20.115Z,66.27
2018-08-04T00:19:30.123Z,66.66
2018-08-04T00:19:39.842Z,66.47
2018-08-04T00:19:50.176Z,66.66
2018-08-04T00:20:00.143Z,66.66
2018-08-04T00:20:10.178Z,66.08
2018-08-04T00:20:20.185Z,66.47
2018-08-04T00:20:30.185Z,66.17
2018-08-04T00:20:40.223Z,65.98
2018-08-04T00:20:50.235Z,66.37
2018-08-04T00:21:00.223Z,66.08
2018-08-04T00:21:10.246Z,66.37
2018-08-04T00:21:20.285Z,66.08
2018-08-04T00:21:30.284Z,66.08
2018-08-04T00:21:40.282Z,66.56
2018-08-04T00:21:50.316Z,66.47
2018-08-04T00:22:00.327Z,66.47
2018-08-04T00:22:10.112Z,66.27
2018-08-04T00:22:20.362Z,66.08
2018-08-04T00:22:30.401Z,66.37
2018-08-04T00:22:40.366Z,66.17
2018-08-04T00:22:50.403Z,66.08
2018-08-04T00:23:00.404Z,66.08
2018-08-04T00:23:10.412Z,65.98
2018-08-04T00:23:20.435Z,66.17
2018-08-04T00:23:30.452Z,66.17
2018-08-04T00:23:40.442Z,66.17
2018-08-04T00:23:50.205Z,66.08
2018-08-04T00:24:00.206Z,66.37
2018-08-04T00:24:10.493Z,66.08
2018-08-04T00:24:20.206Z,66.08
2018-08-04T00:24:30.546Z,65.98
2018-08-04T00:24:40.573Z,65.98
2018-08-04T00:24:50.709Z,66.37
2018-08-04T00:25:00.573Z,66.17
2018-08-04T00:25:10.584Z,66.08
2018-08-04T00:25:20.583Z,66.08
2018-08-04T00:25:30.334Z,66.37
2018-08-04T00:25:40.623Z,66.17
2018-08-04T00:25:50.624Z,66.27
2018-08-04T00:26:00.655Z,66.17
2018-08-04T00:26:10.644Z,66.17
2018-08-04T00:26:20.414Z,65.98
2018-08-04T00:26:30.688Z,65.98
2018-08-04T00:26:40.704Z,66.75
2018-08-04T00:26:50.723Z,65.98
2018-08-04T00:27:00.722Z,65.98
2018-08-04T00:27:10.473Z,65.98
2018-08-04T00:27:20.484Z,66.17
2018-08-04T00:27:30.786Z,65.98
2018-08-04T00:27:40.798Z,66.37
2018-08-04T00:27:50.826Z,66.27
2018-08-04T00:28:00.814Z,66.08
2018-08-04T00:28:10.855Z,66.17
2018-08-04T00:28:20.841Z,66.34
2018-08-04T00:28:30.864Z,66.27
2018-08-04T00:28:40.896Z,66.47
2018-08-04T00:28:50.880Z,66.08
2018-08-04T00:29:00.894Z,66.08
2018-08-04T00:29:10.931Z,66.27
2018-08-04T00:29:20.925Z,66.37
2018-08-04T00:29:30.948Z,66.27
2018-08-04T00:29:40.974Z,65.98
2018-08-04T00:29:50.976Z,65.98
2018-08-04T00:30:01.015Z,66.17
2018-08-04T00:30:11.015Z,66.08
2018-08-04T00:30:21.015Z,66.17
2018-08-04T00:30:31.050Z,66.08
2018-08-04T00:30:41.035Z,66.17
2018-08-04T00:30:51.055Z,66.08
2018-08-04T00:31:01.103Z,65.98
2018-08-04T00:31:11.106Z,66.37
2018-08-04T00:31:21.124Z,66.08
2018-08-04T00:31:31.144Z,65.98
2018-08-04T00:31:41.133Z,65.98
2018-08-04T00:31:51.135Z,65.98
2018-08-04T00:32:00.892Z,66.37
2018-08-04T00:32:11.195Z,65.98
2018-08-04T00:32:21.234Z,66.17
2018-08-04T00:32:31.205Z,66.08
2018-08-04T00:32:41.186Z,65.98
2018-08-04T00:32:50.964Z,65.98
2018-08-04T00:33:00.975Z,65.89
2018-08-04T00:33:11.273Z,66.08
2018-08-04T00:33:21.255Z,66.08
2018-08-04T00:33:31.275Z,66.27
2018-08-04T00:33:41.013Z,66.17
2018-08-04T00:33:51.024Z,66.08
2018-08-04T00:34:01.324Z,66.66
2018-08-04T00:34:11.357Z,65.98
2018-08-04T00:34:21.325Z,65.89
2018-08-04T00:34:31.368Z,66.37
2018-08-04T00:34:41.373Z,65.98
2018-08-04T00:34:51.385Z,65.98
2018-08-04T00:35:01.415Z,66.08
2018-08-04T00:35:11.456Z,66.37
2018-08-04T00:35:21.431Z,65.98
2018-08-04T00:35:31.441Z,66.08
2018-08-04T00:35:41.501Z,66.08
2018-08-04T00:35:51.454Z,66.17
2018-08-04T00:36:01.505Z,66.08
2018-08-04T00:36:11.236Z,66.47
2018-08-04T00:36:21.528Z,66.27
2018-08-04T00:36:31.537Z,66.27
2018-08-04T00:36:41.583Z,66.27
2018-08-04T00:36:51.576Z,66.08
2018-08-04T00:37:01.547Z,66.47
2018-08-04T00:37:11.605Z,66.37
2018-08-04T00:37:21.604Z,66.27
2018-08-04T00:37:31.596Z,66.17
2018-08-04T00:37:41.638Z,66.17
2018-08-04T00:37:51.646Z,66.66
2018-08-04T00:38:01.645Z,66.27
2018-08-04T00:38:11.665Z,66.27
2018-08-04T00:38:21.414Z,66.27
2018-08-04T00:38:31.952Z,66.27
2018-08-04T00:38:41.694Z,66.27
2018-08-04T00:38:51.714Z,66.17
2018-08-04T00:39:01.744Z,66.17
2018-08-04T00:39:11.475Z,66.27
2018-08-04T00:39:21.784Z,66.27
2018-08-04T00:39:31.514Z,66.08
2018-08-04T00:39:41.805Z,66.37
2018-08-04T00:39:51.534Z,66.08
2018-08-04T00:40:01.835Z,66.08
2018-08-04T00:40:12.105Z,66.17
2018-08-04T00:40:21.855Z,66.85
2018-08-04T00:40:31.866Z,66.08
2018-08-04T00:40:41.908Z,66.66
2018-08-04T00:40:51.636Z,65.89
2018-08-04T00:41:01.915Z,65.98
2018-08-04T00:41:11.946Z,66.08
2018-08-04T00:41:21.926Z,65.89
2018-08-04T00:41:31.933Z,65.98
2018-08-04T00:41:41.969Z,65.98
2018-08-04T00:41:51.971Z,66.37
2018-08-04T00:42:02.165Z,66.17
2018-08-04T00:42:12.018Z,66.75
2018-08-04T00:42:22.038Z,66.27
2018-08-04T00:42:32.025Z,66.47
2018-08-04T00:42:42.080Z,66.08
2018-08-04T00:42:52.065Z,66.27
2018-08-04T00:43:02.062Z,66.37
2018-08-04T00:43:11.815Z,66.17
2018-08-04T00:43:22.128Z,66.47
2018-08-04T00:43:32.118Z,66.47
2018-08-04T00:43:41.876Z,66.47
2018-08-04T00:43:52.143Z,66.66
2018-08-04T00:44:02.157Z,66.27
2018-08-04T00:44:11.900Z,66.47
2018-08-04T00:44:21.915Z,66.56
2018-08-04T00:44:32.188Z,66.75
2018-08-04T00:44:41.944Z,66.75
2018-08-04T00:44:52.235Z,66.47
2018-08-04T00:45:02.267Z,66.47
2018-08-04T00:45:12.258Z,66.56
2018-08-04T00:45:22.265Z,66.47
2018-08-04T00:45:32.307Z,66.66
2018-08-04T00:45:42.288Z,66.75
2018-08-04T00:45:52.307Z,66.75
2018-08-04T00:46:02.327Z,66.47
2018-08-04T00:46:12.335Z,66.47
2018-08-04T00:46:22.067Z,66.47
2018-08-04T00:46:32.101Z,66.27
2018-08-04T00:46:42.361Z,66.47
2018-08-04T00:46:52.117Z,66.66
2018-08-04T00:47:02.413Z,66.37
2018-08-04T00:47:12.415Z,66.47
2018-08-04T00:47:22.447Z,66.17
2018-08-04T00:47:32.455Z,66.37
2018-08-04T00:47:42.466Z,66.56
2018-08-04T00:47:52.465Z,66.47
2018-08-04T00:48:02.534Z,66.47
2018-08-04T00:48:12.517Z,66.56
2018-08-04T00:48:22.496Z,66.56
2018-08-04T00:48:32.542Z,66.56
2018-08-04T00:48:42.256Z,66.56
2018-08-04T00:48:52.277Z,66.56
2018-08-04T00:49:02.556Z,66.53
2018-08-04T00:49:12.591Z,66.43
2018-08-04T00:49:22.613Z,66.56
2018-08-04T00:49:32.601Z,66.66
2018-08-04T00:49:42.618Z,66.56
2018-08-04T00:49:52.627Z,66.66
2018-08-04T00:50:02.368Z,66.56
2018-08-04T00:50:12.667Z,66.56
2018-08-04T00:50:22.689Z,66.66
2018-08-04T00:50:32.688Z,66.47
2018-08-04T00:50:42.400Z,66.56
2018-08-04T00:50:52.714Z,66.27
2018-08-04T00:51:02.745Z,66.66
2018-08-04T00:51:12.729Z,66.56
2018-08-04T00:51:22.771Z,66.66
2018-08-04T00:51:32.504Z,66.47
2018-08-04T00:51:42.819Z,66.47
2018-08-04T00:51:52.799Z,66.37
2018-08-04T00:52:02.839Z,66.66
2018-08-04T00:52:12.852Z,66.66
2018-08-04T00:52:22.854Z,66.56
2018-08-04T00:52:32.870Z,66.66
2018-08-04T00:52:42.850Z,66.56
2018-08-04T00:52:52.914Z,66.56
2018-08-04T00:53:02.924Z,66.66
2018-08-04T00:53:12.913Z,66.56
2018-08-04T00:53:22.916Z,66.56
2018-08-04T00:53:32.945Z,66.56
2018-08-04T00:53:42.948Z,66.47
2018-08-04T00:53:52.982Z,66.66
2018-08-04T00:54:03.034Z,66.66
2018-08-04T00:54:12.741Z,66.56
2018-08-04T00:54:22.988Z,66.66
2018-08-04T00:54:33.014Z,66.47
2018-08-04T00:54:43.036Z,66.56
2018-08-04T00:54:52.778Z,66.53
2018-08-04T00:55:03.107Z,66.47
2018-08-04T00:55:13.076Z,66.47
2018-08-04T00:55:22.830Z,66.43
2018-08-04T00:55:32.828Z,66.56
2018-08-04T00:55:43.117Z,66.47
2018-08-04T00:55:53.098Z,66.37
2018-08-04T00:56:02.902Z,66.66
2018-08-04T00:56:13.157Z,66.63
2018-08-04T00:56:23.197Z,66.56
2018-08-04T00:56:33.191Z,66.66
2018-08-04T00:56:43.202Z,66.56
2018-08-04T00:56:53.207Z,66.75
2018-08-04T00:57:02.928Z,66.47
2018-08-04T00:57:13.256Z,66.66
2018-08-04T00:57:23.247Z,66.66
2018-08-04T00:57:33.257Z,66.56
2018-08-04T00:57:43.278Z,66.56
2018-08-04T00:57:53.318Z,66.56
2018-08-04T00:58:03.308Z,66.56
2018-08-04T00:58:13.327Z,66.37
2018-08-04T00:58:23.361Z,66.47
2018-08-04T00:58:33.347Z,66.47
2018-08-04T00:58:43.367Z,66.66
2018-08-04T00:58:53.387Z,66.47
2018-08-04T00:59:03.407Z,66.47
2018-08-04T00:59:13.398Z,66.47
2018-08-04T00:59:23.436Z,66.47
2018-08-04T00:59:33.457Z,66.37
2018-08-04T00:59:43.471Z,66.56
2018-08-04T00:59:53.458Z,66.27
2018-08-04T01:00:03.492Z,66.27
2018-08-04T01:00:13.498Z,66.27
2018-08-04T01:00:23.250Z,66.56
2018-08-04T01:00:33.270Z,66.47
2018-08-04T01:00:43.527Z,66.56
2018-08-04T01:00:53.538Z,66.56
2018-08-04T01:01:03.569Z,66.56
2018-08-04T01:01:13.319Z,66.56
2018-08-04T01:01:23.579Z,66.56
2018-08-04T01:01:33.689Z,66.66
2018-08-04T01:01:43.626Z,66.56
2018-08-04T01:01:53.358Z,66.56
2018-08-04T01:02:03.639Z,66.66
2018-08-04T01:02:13.669Z,66.66
2018-08-04T01:02:23.395Z,66.56
2018-08-04T01:02:33.676Z,66.47
2018-08-04T01:02:43.714Z,66.27
2018-08-04T01:02:53.418Z,66.66
2018-08-04T01:03:03.719Z,66.27
2018-08-04T01:03:13.741Z,66.66
2018-08-04T01:03:23.759Z,66.27
2018-08-04T01:03:33.489Z,66.27
2018-08-04T01:03:43.769Z,66.56
2018-08-04T01:03:53.817Z,66.75
2018-08-04T01:04:03.797Z,66.95
2018-08-04T01:04:13.819Z,66.92
2018-08-04T01:04:23.840Z,66.95
2018-08-04T01:04:33.576Z,66.85
2018-08-04T01:04:43.885Z,66.92
2018-08-04T01:04:53.879Z,67.05
2018-08-04T01:05:03.949Z,66.95
2018-08-04T01:05:13.619Z,67.05
2018-08-04T01:05:23.918Z,66.95
2018-08-04T01:05:33.939Z,67.14
2018-08-04T01:05:43.961Z,66.92
2018-08-04T01:05:53.966Z,66.75
2018-08-04T01:06:03.968Z,66.95
2018-08-04T01:06:14.007Z,67.05
2018-08-04T01:06:24.009Z,67.05
2018-08-04T01:06:34.016Z,66.85
2018-08-04T01:06:43.769Z,66.95
2018-08-04T01:06:53.774Z,66.95
2018-08-04T01:07:04.001Z,66.92
2018-08-04T01:07:14.236Z,67.05
2018-08-04T01:07:24.073Z,67.14
2018-08-04T01:07:34.099Z,66.95
2018-08-04T01:07:44.142Z,66.95
2018-08-04T01:07:54.135Z,66.95
2018-08-04T01:08:03.869Z,66.66
2018-08-04T01:08:14.206Z,66.56
2018-08-04T01:08:24.148Z,66.47
2018-08-04T01:08:33.914Z,66.63
2018-08-04T01:08:44.220Z,66.56
2018-08-04T01:08:54.236Z,66.37
2018-08-04T01:09:04.242Z,66.47
2018-08-04T01:09:14.286Z,66.66
2018-08-04T01:09:24.262Z,66.56
2018-08-04T01:09:34.279Z,66.56
2018-08-04T01:09:44.070Z,66.56
2018-08-04T01:09:54.319Z,66.95
2018-08-04T01:10:04.060Z,66.63
2018-08-04T01:10:14.330Z,67.05
2018-08-04T01:10:24.538Z,66.66
2018-08-04T01:10:34.078Z,66.95
2018-08-04T01:10:44.369Z,66.95
2018-08-04T01:10:54.418Z,66.95
2018-08-04T01:11:04.418Z,66.95
2018-08-04T01:11:14.399Z,66.95
2018-08-04T01:11:24.419Z,66.95
2018-08-04T01:11:34.453Z,66.92
2018-08-04T01:11:44.190Z,66.82
2018-08-04T01:11:54.469Z,66.92
2018-08-04T01:12:04.489Z,66.85
2018-08-04T01:12:14.480Z,66.82
2018-08-04T01:12:24.220Z,66.95
2018-08-04T01:12:34.511Z,66.82
2018-08-04T01:12:44.259Z,66.75
2018-08-04T01:12:54.280Z,67.05
2018-08-04T01:13:04.629Z,66.95
2018-08-04T01:13:14.308Z,67.02
2018-08-04T01:13:24.346Z,66.85
2018-08-04T01:13:34.329Z,66.95
2018-08-04T01:13:44.630Z,66.82
2018-08-04T01:13:54.639Z,66.95
2018-08-04T01:14:04.660Z,66.95
2018-08-04T01:14:14.403Z,67.02
2018-08-04T01:14:24.681Z,67.05
2018-08-04T01:14:34.728Z,66.85
2018-08-04T01:14:44.692Z,66.75
2018-08-04T01:14:54.712Z,66.95
2018-08-04T01:15:04.742Z,66.95
2018-08-04T01:15:14.780Z,67.05
2018-08-04T01:15:24.771Z,67.05
2018-08-04T01:15:34.769Z,67.14
2018-08-04T01:15:44.799Z,67.11
2018-08-04T01:15:54.816Z,66.75
2018-08-04T01:16:04.835Z,66.85
2018-08-04T01:16:14.822Z,66.95
2018-08-04T01:16:24.570Z,66.95
2018-08-04T01:16:34.598Z,66.75
2018-08-04T01:16:44.882Z,66.85
2018-08-04T01:16:54.898Z,66.72
2018-08-04T01:17:04.909Z,66.85
2018-08-04T01:17:14.902Z,66.75
2018-08-04T01:17:24.942Z,67.02
2018-08-04T01:17:34.959Z,67.05
2018-08-04T01:17:44.977Z,66.92
2018-08-04T01:17:55.011Z,66.82
2018-08-04T01:18:05.020Z,66.95
2018-08-04T01:18:14.991Z,67.05
2018-08-04T01:18:25.010Z,66.95
2018-08-04T01:18:34.759Z,67.05
2018-08-04T01:18:45.030Z,66.82
2018-08-04T01:18:54.782Z,66.95
2018-08-04T01:19:05.061Z,66.85
2018-08-04T01:19:15.091Z,66.95
2018-08-04T01:19:25.117Z,66.92
2018-08-04T01:19:35.117Z,66.95
2018-08-04T01:19:44.860Z,66.82
2018-08-04T01:19:55.100Z,66.75
2018-08-04T01:20:05.156Z,67.05
2018-08-04T01:20:15.174Z,67.05
2018-08-04T01:20:25.185Z,67.05
2018-08-04T01:20:35.351Z,67.05
2018-08-04T01:20:44.958Z,66.95
2018-08-04T01:20:55.231Z,67.05
2018-08-04T01:21:04.967Z,66.95
2018-08-04T01:21:15.258Z,67.05
2018-08-04T01:21:25.291Z,66.85
2018-08-04T01:21:35.260Z,66.82
2018-08-04T01:21:45.285Z,66.85
2018-08-04T01:21:55.144Z,66.85
2018-08-04T01:22:05.309Z,66.95
2018-08-04T01:22:15.309Z,67.02
2018-08-04T01:22:25.363Z,66.85
2018-08-04T01:22:35.366Z,66.85
2018-08-04T01:22:45.342Z,66.82
2018-08-04T01:22:55.402Z,66.85
2018-08-04T01:23:05.391Z,66.72
2018-08-04T01:23:15.420Z,66.85
2018-08-04T01:23:25.423Z,66.82
2018-08-04T01:23:35.480Z,66.72
2018-08-04T01:23:45.188Z,67.05
2018-08-04T01:23:55.227Z,66.72
2018-08-04T01:24:05.513Z,66.53
2018-08-04T01:24:15.213Z,66.53
2018-08-04T01:24:25.514Z,66.75
2018-08-04T01:24:35.551Z,66.95
2018-08-04T01:24:45.571Z,66.82
2018-08-04T01:24:55.300Z,66.63
2018-08-04T01:25:05.313Z,66.82
2018-08-04T01:25:15.593Z,67.02
2018-08-04T01:25:25.601Z,66.92
2018-08-04T01:25:35.613Z,66.82
2018-08-04T01:25:45.630Z,66.75
2018-08-04T01:25:55.622Z,66.72
2018-08-04T01:26:05.650Z,66.82
2018-08-04T01:26:15.671Z,66.82
2018-08-04T01:26:25.690Z,66.82
2018-08-04T01:26:35.680Z,66.82
2018-08-04T01:26:45.430Z,66.92
2018-08-04T01:26:55.691Z,66.82
2018-08-04T01:27:05.724Z,66.72
2018-08-04T01:27:15.761Z,66.92
2018-08-04T01:27:25.480Z,66.92
2018-08-04T01:27:35.800Z,66.72
2018-08-04T01:27:45.818Z,66.72
2018-08-04T01:27:55.522Z,66.92
2018-08-04T01:28:05.542Z,67.02
2018-08-04T01:28:15.531Z,66.92
2018-08-04T01:28:25.831Z,66.53
2018-08-04T01:28:35.846Z,66.92
2018-08-04T01:28:45.584Z,66.53
2018-08-04T01:28:55.900Z,67.02
2018-08-04T01:29:05.891Z,66.92
2018-08-04T01:29:15.891Z,67.02
2018-08-04T01:29:26.033Z,66.92
2018-08-04T01:29:35.950Z,66.82
2018-08-04T01:29:45.969Z,66.82
2018-08-04T01:29:56.002Z,66.82
2018-08-04T01:30:05.981Z,67.02
2018-08-04T01:30:15.982Z,66.72
2018-08-04T01:30:26.022Z,67.02
2018-08-04T01:30:36.044Z,66.92
2018-08-04T01:30:46.014Z,67.02
2018-08-04T01:30:56.039Z,66.72
2018-08-04T01:31:06.075Z,67.02
2018-08-04T01:31:16.073Z,66.53
2018-08-04T01:31:26.110Z,67.02
2018-08-04T01:31:36.115Z,67.02
2018-08-04T01:31:46.130Z,66.72
2018-08-04T01:31:55.855Z,67.02
2018-08-04T01:32:06.175Z,66.82
2018-08-04T01:32:16.164Z,66.82
2018-08-04T01:32:26.184Z,67.02
2018-08-04T01:32:36.192Z,66.92
2018-08-04T01:32:46.226Z,66.92
2018-08-04T01:32:55.943Z,67.02
2018-08-04T01:33:05.963Z,66.72
2018-08-04T01:33:16.281Z,66.72
2018-08-04T01:33:26.248Z,67.02
2018-08-04T01:33:35.991Z,66.72
2018-08-04T01:33:46.283Z,66.53
2018-08-04T01:33:56.027Z,67.02
2018-08-04T01:34:06.079Z,66.63
2018-08-04T01:34:16.347Z,66.72
2018-08-04T01:34:26.399Z,66.72
2018-08-04T01:34:36.366Z,66.82
2018-08-04T01:34:46.103Z,67.02
2018-08-04T01:34:56.392Z,66.92
2018-08-04T01:35:06.404Z,66.92
2018-08-04T01:35:16.392Z,67.02
2018-08-04T01:35:26.434Z,67.02
2018-08-04T01:35:36.441Z,66.82
2018-08-04T01:35:46.453Z,67.02
2018-08-04T01:35:56.472Z,66.82
2018-08-04T01:36:06.486Z,66.92
2018-08-04T01:36:16.225Z,66.92
2018-08-04T01:36:26.552Z,66.92
2018-08-04T01:36:36.234Z,66.82
2018-08-04T01:36:46.522Z,66.82
2018-08-04T01:36:56.556Z,67.02
2018-08-04T01:37:06.276Z,66.92
2018-08-04T01:37:16.292Z,66.72
2018-08-04T01:37:26.333Z,67.02
2018-08-04T01:37:36.621Z,67.02
2018-08-04T01:37:46.642Z,67.02
2018-08-04T01:37:56.383Z,66.92
2018-08-04T01:38:06.673Z,66.92
2018-08-04T01:38:16.666Z,66.92
2018-08-04T01:38:26.691Z,66.92
2018-08-04T01:38:36.682Z,66.82
2018-08-04T01:38:46.693Z,66.82
2018-08-04T01:38:56.735Z,66.82
2018-08-04T01:39:06.751Z,66.92
2018-08-04T01:39:16.726Z,66.82
2018-08-04T01:39:26.760Z,66.82
2018-08-04T01:39:36.775Z,66.82
2018-08-04T01:39:46.526Z,66.92
2018-08-04T01:39:56.823Z,67.02
2018-08-04T01:40:06.844Z,66.72
2018-08-04T01:40:16.865Z,66.72
2018-08-04T01:40:26.577Z,66.92
2018-08-04T01:40:36.853Z,66.85
2018-08-04T01:40:46.876Z,67.11
2018-08-04T01:40:56.996Z,66.82
2018-08-04T01:41:06.623Z,67.02
2018-08-04T01:41:16.922Z,66.92
2018-08-04T01:41:26.894Z,66.72
2018-08-04T01:41:36.934Z,66.92
2018-08-04T01:41:46.684Z,66.92
2018-08-04T01:41:56.982Z,66.72
2018-08-04T01:42:06.973Z,66.72
2018-08-04T01:42:17.012Z,66.82
2018-08-04T01:42:27.023Z,66.72
2018-08-04T01:42:37.041Z,66.92
2018-08-04T01:42:47.050Z,66.92
2018-08-04T01:42:57.054Z,66.92
2018-08-04T01:43:07.053Z,66.92
2018-08-04T01:43:17.073Z,66.72
2018-08-04T01:43:27.105Z,67.02
2018-08-04T01:43:36.810Z,66.82
2018-08-04T01:43:46.835Z,66.82
2018-08-04T01:43:57.123Z,66.92
2018-08-04T01:44:07.128Z,66.72
2018-08-04T01:44:16.864Z,66.92
2018-08-04T01:44:27.173Z,67.02
2018-08-04T01:44:37.204Z,67.02
2018-08-04T01:44:46.926Z,67.02
2018-08-04T01:44:56.934Z,66.72
2018-08-04T01:45:07.236Z,66.72
2018-08-04T01:45:17.245Z,66.63
2018-08-04T01:45:27.254Z,66.72
2018-08-04T01:45:37.265Z,66.72
2018-08-04T01:45:47.264Z,66.72
2018-08-04T01:45:57.303Z,66.63
2018-08-04T01:46:07.310Z,66.82
2018-08-04T01:46:17.314Z,66.72
2018-08-04T01:46:27.313Z,66.82
2018-08-04T01:46:37.350Z,66.82
2018-08-04T01:46:47.396Z,66.82
2018-08-04T01:46:57.387Z,66.82
2018-08-04T01:47:07.388Z,66.82
2018-08-04T01:47:17.423Z,66.72
2018-08-04T01:47:27.446Z,66.72
2018-08-04T01:47:37.473Z,66.72
2018-08-04T01:47:47.193Z,67.02
2018-08-04T01:47:57.477Z,66.72
2018-08-04T01:48:07.501Z,66.92
2018-08-04T01:48:17.486Z,66.82
2018-08-04T01:48:27.247Z,66.72
2018-08-04T01:48:37.567Z,67.02
2018-08-04T01:48:47.563Z,66.95
2018-08-04T01:48:57.274Z,66.82
2018-08-04T01:49:07.585Z,66.82
2018-08-04T01:49:17.296Z,66.82
2018-08-04T01:49:27.626Z,66.82
2018-08-04T01:49:37.616Z,67.11
2018-08-04T01:49:47.622Z,67.02
2018-08-04T01:49:57.637Z,66.92
2018-08-04T01:50:07.395Z,66.92
2018-08-04T01:50:17.694Z,66.92
2018-08-04T01:50:27.665Z,66.82
2018-08-04T01:50:37.693Z,66.92
2018-08-04T01:50:47.718Z,66.82
2018-08-04T01:50:57.732Z,67.02
2018-08-04T01:51:07.476Z,66.95
2018-08-04T01:51:17.743Z,66.92
2018-08-04T01:51:27.485Z,66.92
2018-08-04T01:51:37.765Z,66.92
2018-08-04T01:51:47.773Z,66.92
2018-08-04T01:51:57.806Z,66.82
2018-08-04T01:52:07.817Z,66.82
2018-08-04T01:52:17.832Z,67.02
2018-08-04T01:52:27.855Z,66.92
2018-08-04T01:52:37.885Z,66.82
2018-08-04T01:52:47.865Z,67.21
2018-08-04T01:52:57.881Z,66.72
2018-08-04T01:53:07.615Z,66.92
2018-08-04T01:53:17.905Z,66.72
2018-08-04T01:53:27.953Z,66.82
2018-08-04T01:53:38.033Z,66.92
2018-08-04T01:53:48.320Z,67.02
2018-08-04T01:53:57.975Z,66.82
2018-08-04T01:54:07.981Z,66.72
2018-08-04T01:54:18.004Z,66.72
2018-08-04T01:54:28.001Z,66.82
2018-08-04T01:54:38.017Z,67.02
2018-08-04T01:54:48.069Z,66.82
2018-08-04T01:54:58.035Z,66.82
2018-08-04T01:55:08.083Z,66.72
2018-08-04T01:55:18.066Z,66.82
2018-08-04T01:55:28.128Z,66.92
2018-08-04T01:55:38.100Z,66.82
2018-08-04T01:55:48.153Z,66.82
2018-08-04T01:55:58.157Z,66.92
2018-08-04T01:56:08.155Z,66.82
2018-08-04T01:56:18.165Z,66.82
2018-08-04T01:56:28.198Z,66.72
2018-08-04T01:56:37.919Z,67.02
2018-08-04T01:56:48.204Z,67.02
2018-08-04T01:56:58.213Z,66.72
2018-08-04T01:57:08.237Z,67.02
2018-08-04T01:57:18.267Z,66.82
2018-08-04T01:57:27.987Z,67.02
2018-08-04T01:57:38.035Z,67.21
2018-08-04T01:57:48.296Z,66.82
2018-08-04T01:57:58.287Z,66.82
2018-08-04T01:58:08.314Z,66.63
2018-08-04T01:58:18.332Z,66.92
2018-08-04T01:58:28.405Z,66.82
2018-08-04T01:58:38.345Z,66.82
2018-08-04T01:58:48.140Z,66.82
2018-08-04T01:58:58.117Z,66.82
2018-08-04T01:59:08.502Z,66.92
2018-08-04T01:59:18.626Z,66.82
2018-08-04T01:59:28.474Z,66.92
2018-08-04T01:59:38.165Z,66.82
2018-08-04T01:59:48.454Z,66.72
2018-08-04T01:59:58.472Z,66.72
2018-08-04T02:00:08.493Z,67.02
2018-08-04T02:00:18.524Z,66.92
2018-08-04T02:00:28.246Z,66.92
2018-08-04T02:00:38.236Z,66.53
2018-08-04T02:00:48.276Z,66.53
2018-08-04T02:00:58.542Z,67.02
2018-08-04T02:01:08.324Z,66.72
2018-08-04T02:01:18.576Z,67.02
2018-08-04T02:01:28.596Z,66.53
2018-08-04T02:01:38.636Z,67.02
2018-08-04T02:01:48.616Z,67.02
2018-08-04T02:01:58.636Z,66.72
2018-08-04T02:02:08.645Z,66.92
2018-08-04T02:02:18.669Z,66.72
2018-08-04T02:02:28.680Z,66.72
2018-08-04T02:02:38.696Z,66.63
2018-08-04T02:02:48.709Z,66.82
2018-08-04T02:02:58.716Z,67.02
2018-08-04T02:03:08.738Z,67.02
2018-08-04T02:03:18.468Z,67.02
2018-08-04T02:03:28.765Z,66.63
2018-08-04T02:03:38.511Z,66.63
2018-08-04T02:03:48.796Z,66.53
2018-08-04T02:03:58.518Z,66.63
2018-08-04T02:04:08.819Z,67.02
2018-08-04T02:04:18.838Z,66.72
2018-08-04T02:04:28.617Z,67.02
2018-08-04T02:04:38.848Z,66.53
2018-08-04T02:04:48.937Z,67.02
2018-08-04T02:04:58.905Z,67.02
2018-08-04T02:05:08.622Z,66.82
2018-08-04T02:05:18.908Z,66.72
2018-08-04T02:05:28.929Z,66.92
2018-08-04T02:05:39.166Z,67.02
2018-08-04T02:05:48.692Z,66.82
2018-08-04T02:05:58.983Z,66.92
2018-08-04T02:06:08.975Z,66.82
2018-08-04T02:06:18.997Z,66.72
2018-08-04T02:06:29.037Z,66.82
2018-08-04T02:06:39.044Z,66.82
2018-08-04T02:06:49.018Z,66.82
2018-08-04T02:06:58.823Z,66.72
2018-08-04T02:07:09.121Z,66.92
2018-08-04T02:07:18.867Z,66.72
2018-08-04T02:07:29.126Z,66.72
2018-08-04T02:07:38.817Z,66.72
2018-08-04T02:07:48.846Z,66.92
2018-08-04T02:07:59.147Z,67.02
2018-08-04T02:08:08.867Z,66.63
2018-08-04T02:08:19.148Z,66.92
2018-08-04T02:08:29.186Z,66.72
2018-08-04T02:08:39.237Z,66.92
2018-08-04T02:08:49.217Z,66.53
2018-08-04T02:08:58.965Z,67.02